weather.gov     
National Weather Service

Terminal Aerodrome Forecast
NWS Homepage
This page is being discontinued on March 12, 2014.
The same data is available at this site. Please update your bookmarks.
Thank you, and we apologize for the inconvenience.
Please send an email to SR-SRH.Webmaster@noaa.gov with any concerns.


Current Version
Previous Version:    01  02  03  04  05  06  07  08  09  10  11  12  13  14  15  16  17  18  19  20  21  22  23  24  25  26  27  28  29  30  
   31  32  33  34  35  36  37  38  39  40  41  42  43  44  45  
[Printable]
128
FTUS43 KDLH 290900 AAB
TAFDLH
TAF AMD
KDLH 290924Z 2909/3006 10007KT P6SM VCSH OVC007
      TEMPO 2910/2912 6SM -RA BR OVC005
     FM291200 11008KT 5SM -RA BR OVC005
      TEMPO 2912/2916 2SM TSRA BR OVC004CB
     FM291600 13006KT 4SM BR VCSH OVC004
     FM292100 10006KT 5SM BR VCTS OVC007CB
     FM300200 VRB03KT 2SM BR OVC004=


U.S. Dept. of Commerce
NOAA National Weather Service
1325 East West Highway
Silver Spring, MD 20910
E-mail: w-nws.webmaster@noaa.gov
Page last modified: May 16, 2007
NATIONAL WEATHER SERVICE: for Safety, for Work, for Fun - FOR LIFE